Terminal Aerodrome Forecast
Issued by NWS

Home | Current Version | Previous Version | Graphics & Text | Print | Product List | Glossary On
Versions: 1 2 3 4 5 6 7 8 9 10 11 12 13 14 15 16 17 18 19 20 21 22 23 24 25 26
720
FTUS43 KLOT 132330
TAFMDW
TAF
KMDW 132330Z 1400/1424 05012KT P6SM SCT015 OVC120
     FM140300 07005KT P6SM SCT060 OVC150
     FM141300 VRB03KT P6SM BKN050 OVC100
     FM141900 32006KT P6SM SCT050 BKN200=

USA.gov is the U.S. government's official web portal to all federal, state and local government web resources and services.